»·PEaware :: SWA1091 KSNA-KPHX

SWA1091 :: KSNA-KPHX

FLIGHT INFORMATION

Flight Status: Arrived
Operator:
Southwest Airlines
More flights by this operator :: More flights under this callsign
Pilot: Ryan B. (8502)
Aircraft: BOEING 737-400
(B734)
More flights by this aircraft type
Origin: KSNA John Wayne-Orange Co
United States
Destination: KPHX Phoenix Sky Harbor Intl
United States
More flights between these airports :: More routes between these airports
Route: +PIGGN2 CNERY BLH HYDRR1
File this flight plan on PilotEdge
Remarks:
Altitude:
(Current/Filed)
31,000ft
Speed:
(Current/Filed)
446kts
Departed: 28-Oct-17 02:28 PM
Arrived: 28-Oct-17 03:21 PM
Distance/Time
Traveled:
294nm/0:52
Distance/Time
To Go:
Arrived

Flight Plot

Page will automatically refresh every two minutes.

Flight plan parsing failed; only flown route is shown


Map Options




Map Legend


Flown Route
Filed Route
Departure Airport
Arrival Airport
Navaid (VOR, NDB)
Fix

Horizontal Profiles

Position Reports

Time Latitude Longitude Heading Altitude Ground
Speed
28-Oct-17 14:18 33.678497 -117.862870 117 43ft 0kts
28-Oct-17 14:19 33.678497 -117.862870 117 43ft 0kts
28-Oct-17 14:20 33.678497 -117.862870 117 43ft 0kts
28-Oct-17 14:21 33.678497 -117.862870 117 43ft 0kts
28-Oct-17 14:22 33.678497 -117.862870 117 43ft 0kts
28-Oct-17 14:23 33.678497 -117.862870 117 43ft 0kts
28-Oct-17 14:24 33.678497 -117.862870 117 43ft 0kts
28-Oct-17 14:25 33.678497 -117.862870 117 43ft 0kts
28-Oct-17 14:26 33.678497 -117.862870 117 43ft 0kts
28-Oct-17 14:27 33.678724 -117.863142 170 43ft 2kts
28-Oct-17 14:28 33.678916 -117.863107 209 43ft 0kts
28-Oct-17 14:29 33.678915 -117.863107 209 43ft 0kts
28-Oct-17 14:30 33.678910 -117.863112 209 43ft 0kts
28-Oct-17 14:31 33.679957 -117.862812 22 42ft 12kts
28-Oct-17 14:32 33.680614 -117.862949 302 42ft 0kts
28-Oct-17 14:33 33.675145 -117.869174 207 53ft 116kts
28-Oct-17 14:34 33.631601 -117.890637 187 1412ft 207kts
28-Oct-17 14:35 33.567771 -117.895994 160 3365ft 251kts
28-Oct-17 14:36 33.505907 -117.852561 123 6156ft 272kts
28-Oct-17 14:37 33.475935 -117.768453 89 8901ft 281kts
28-Oct-17 14:38 33.491043 -117.676464 58 11189ft 298kts
28-Oct-17 14:39 33.535036 -117.584927 58 12789ft 340kts
28-Oct-17 14:40 33.575807 -117.479124 86 14524ft 372kts
28-Oct-17 14:41 33.544405 -117.359148 108 16733ft 385kts
28-Oct-17 14:42 33.506933 -117.238031 103 18763ft 394kts
28-Oct-17 14:43 33.502249 -117.106407 90 20641ft 401kts
28-Oct-17 14:44 33.499605 -116.970896 90 22237ft 414kts
28-Oct-17 14:45 33.497306 -116.833033 89 23668ft 426kts
28-Oct-17 14:46 33.495718 -116.690369 89 25117ft 434kts
28-Oct-17 14:47 33.493963 -116.545367 89 26441ft 441kts
28-Oct-17 14:48 33.491886 -116.397280 89 27720ft 447kts
28-Oct-17 14:49 33.489607 -116.250515 90 29391ft 440kts
28-Oct-17 14:50 33.487374 -116.105617 90 30769ft 436kts
28-Oct-17 14:51 33.505661 -115.963613 69 30860ft 439kts
28-Oct-17 14:52 33.546776 -115.826760 70 30854ft 437kts
28-Oct-17 14:53 33.586963 -115.688955 70 30855ft 438kts
28-Oct-17 14:54 33.622022 -115.550002 91 30840ft 437kts
28-Oct-17 14:55 33.613808 -115.404039 90 30860ft 439kts
28-Oct-17 14:56 33.610060 -115.259639 91 30889ft 438kts
28-Oct-17 14:57 33.606274 -115.114655 90 30909ft 439kts
28-Oct-17 14:58 33.602266 -114.967523 89 30907ft 444kts
28-Oct-17 14:59 33.598054 -114.819233 89 30911ft 445kts
28-Oct-17 15:00 33.579364 -114.673138 101 30912ft 448kts
28-Oct-17 15:01 33.550881 -114.528474 100 30909ft 447kts
28-Oct-17 15:02 33.522516 -114.383107 100 28127ft 453kts
28-Oct-17 15:03 33.494318 -114.239473 101 25700ft 432kts
28-Oct-17 15:04 33.467005 -114.101235 101 23974ft 432kts
28-Oct-17 15:05 33.438608 -113.961526 101 23801ft 430kts
28-Oct-17 15:06 33.411275 -113.825441 101 22258ft 420kts
28-Oct-17 15:07 33.389099 -113.715510 101 21972ft 403kts
28-Oct-17 15:08 33.361760 -113.580443 101 22018ft 423kts
28-Oct-17 15:09 33.334403 -113.443953 99 22020ft 422kts
28-Oct-17 15:10 33.310786 -113.307090 99 22006ft 422kts
28-Oct-17 15:11 33.288739 -113.170043 97 21388ft 418kts
28-Oct-17 15:12 33.274735 -113.035424 85 19182ft 391kts
28-Oct-17 15:13 33.278219 -112.916099 85 18470ft 342kts
28-Oct-17 15:14 33.285460 -112.807845 65 16777ft 314kts
28-Oct-17 15:15 33.318924 -112.718961 63 15339ft 286kts
28-Oct-17 15:16 33.351468 -112.633423 63 13525ft 273kts
28-Oct-17 15:17 33.380872 -112.556432 63 12096ft 249kts
28-Oct-17 15:18 33.408452 -112.482652 65 10148ft 242kts
28-Oct-17 15:19 33.428437 -112.421471 86 8501ft 237kts
28-Oct-17 15:20 33.428682 -112.331366 89 6262ft 231kts
28-Oct-17 15:21 33.428441 -112.255608 89 4436ft 228kts
28-Oct-17 15:22 33.428063 -112.195932 89 4012ft 209kts
28-Oct-17 15:23 33.427582 -112.127506 87 3125ft 201kts
28-Oct-17 15:24 33.431001 -112.055857 89 1769ft 165kts
28-Oct-17 15:25 33.431072 -112.015034 90 1121ft 93kts
28-Oct-17 15:26 33.432151 -112.003556 89 1123ft 25kts
28-Oct-17 15:27 33.432950 -111.998170 341 1122ft 18kts
28-Oct-17 15:28 33.433715 -111.998748 322 1123ft 0kts
28-Oct-17 15:29 33.433715 -111.998748 322 1123ft 0kts
28-Oct-17 15:30 33.433715 -111.998748 322 1123ft 0kts

Navigation Log

Ident Type
Flight plan parsing failed, navigation log unavailable